createdAt,value
2023-02-02T00:00:13.606Z,22.44
2023-02-02T00:05:36.933Z,22.32
2023-02-02T00:10:41.714Z,21.30
2023-02-02T00:15:45.373Z,20.81
2023-02-02T00:20:49.505Z,21.72
2023-02-02T00:25:54.345Z,21.04
2023-02-02T00:30:57.934Z,18.12
2023-02-02T00:36:04.144Z,19.09
2023-02-02T00:41:09.302Z,21.49
2023-02-02T00:46:15.670Z,20.37
2023-02-02T00:51:19.406Z,20.84
2023-02-02T00:56:25.940Z,21.46
2023-02-02T01:01:32.153Z,22.30
2023-02-02T01:06:37.906Z,24.16
2023-02-02T01:11:42.760Z,30.72
2023-02-02T01:16:48.951Z,22.10
2023-02-02T01:21:52.580Z,22.32
2023-02-02T01:26:58.524Z,22.28
2023-02-02T01:32:05.217Z,22.80
2023-02-02T01:37:11.683Z,20.55
2023-02-02T01:42:20.430Z,17.12
2023-02-02T01:47:37.602Z,11.82
2023-02-02T01:52:43.718Z,11.65
2023-02-02T01:57:53.753Z,11.57
2023-02-02T02:03:00.147Z,11.38
2023-02-02T02:08:09.671Z,11.62
2023-02-02T02:13:15.808Z,11.64
2023-02-02T02:18:28.977Z,12.26
2023-02-02T02:24:08.557Z,11.70
2023-02-02T02:29:39.345Z,11.33
2023-02-02T02:34:53.839Z,10.41
2023-02-02T02:40:05.469Z,10.24
2023-02-02T02:45:11.715Z,9.65
2023-02-02T02:50:16.886Z,9.19
2023-02-02T02:55:26.085Z,9.22
2023-02-02T03:00:37.680Z,9.82
2023-02-02T03:05:49.733Z,17.21
2023-02-02T03:10:53.834Z,19.11
2023-02-02T03:16:02.327Z,20.41
2023-02-02T03:21:07.586Z,20.02
2023-02-02T03:26:11.459Z,20.06
2023-02-02T03:31:17.505Z,22.09
2023-02-02T03:36:24.632Z,21.99
2023-02-02T03:41:28.060Z,17.92
2023-02-02T03:46:31.523Z,22.95
2023-02-02T03:51:36.312Z,19.45
2023-02-02T03:56:39.801Z,20.33
2023-02-02T04:01:43.291Z,19.59
2023-02-02T04:06:48.085Z,23.67
2023-02-02T04:11:53.850Z,21.22
2023-02-02T04:16:57.243Z,24.60
2023-02-02T04:22:02.056Z,22.02
2023-02-02T04:27:05.629Z,21.33
2023-02-02T04:32:09.930Z,37.81
2023-02-02T04:37:16.820Z,21.48
2023-02-02T04:42:20.198Z,18.36
2023-02-02T04:47:25.917Z,12.02
2023-02-02T04:52:31.222Z,26.37
2023-02-02T04:57:34.608Z,9.79
2023-02-02T05:02:38.037Z,8.73
2023-02-02T05:07:42.998Z,8.14
2023-02-02T05:12:49.416Z,11.01
2023-02-02T05:17:55.076Z,18.08
2023-02-02T05:22:59.974Z,24.22
2023-02-02T05:28:03.445Z,28.01
2023-02-02T05:33:06.815Z,23.87
2023-02-02T05:38:14.195Z,25.78
2023-02-02T05:43:17.639Z,21.65
2023-02-02T05:48:21.540Z,19.88
2023-02-02T05:53:28.863Z,39.66
2023-02-02T05:58:32.331Z,29.41
2023-02-02T06:03:37.979Z,26.97
2023-02-02T06:08:45.170Z,25.48
2023-02-02T06:13:50.787Z,28.49
2023-02-02T06:18:56.592Z,27.46
2023-02-02T06:24:03.669Z,29.00
2023-02-02T06:29:07.925Z,46.46
2023-02-02T06:34:14.776Z,31.22
2023-02-02T06:39:19.999Z,53.98
2023-02-02T06:44:23.494Z,32.01
2023-02-02T06:49:27.004Z,35.97
2023-02-02T06:54:31.794Z,34.91
2023-02-02T06:59:35.190Z,34.31
2023-02-02T07:04:41.049Z,29.32
2023-02-02T07:09:48.136Z,26.33
2023-02-02T07:15:05.472Z,25.41
2023-02-02T07:20:09.644Z,25.45
2023-02-02T07:25:17.136Z,19.96
2023-02-02T07:30:20.880Z,26.80
2023-02-02T07:35:25.183Z,30.11
2023-02-02T07:40:30.182Z,27.64
2023-02-02T07:45:33.633Z,26.27
2023-02-02T07:50:37.065Z,36.79
2023-02-02T07:55:44.027Z,30.94
2023-02-02T08:00:47.567Z,25.43
2023-02-02T08:05:53.481Z,25.69
2023-02-02T08:10:58.423Z,23.45
2023-02-02T08:16:02.092Z,20.05
2023-02-02T08:21:08.274Z,23.68
2023-02-02T08:26:14.644Z,28.86
2023-02-02T08:31:19.772Z,27.23
2023-02-02T08:36:24.578Z,26.77
2023-02-02T08:41:32.652Z,25.99
2023-02-02T08:46:38.737Z,26.31
2023-02-02T08:51:44.610Z,21.06
2023-02-02T08:56:51.786Z,25.22
2023-02-02T09:01:57.722Z,19.51
2023-02-02T09:07:02.641Z,22.83
2023-02-02T09:12:08.026Z,24.50
2023-02-02T09:17:14.018Z,22.33
2023-02-02T09:22:17.642Z,18.37
2023-02-02T09:27:22.457Z,11.25
2023-02-02T09:32:25.900Z,9.20
2023-02-02T09:37:32.052Z,14.23
2023-02-02T09:42:44.930Z,15.32
2023-02-02T09:47:55.652Z,11.20
2023-02-02T09:53:04.165Z,10.73
2023-02-02T09:58:15.185Z,10.62
2023-02-02T10:03:23.898Z,10.32
2023-02-02T10:08:36.348Z,10.99
2023-02-02T10:13:47.540Z,10.80
2023-02-02T10:18:56.354Z,10.95
2023-02-02T10:24:02.237Z,9.84
2023-02-02T10:29:18.780Z,13.13
2023-02-02T10:34:27.087Z,12.92
2023-02-02T10:39:41.166Z,11.36
2023-02-02T10:44:50.085Z,11.99
2023-02-02T10:50:00.398Z,14.72
2023-02-02T10:55:08.373Z,12.68
2023-02-02T11:00:22.870Z,13.57
2023-02-02T11:05:46.295Z,10.87
2023-02-02T11:10:53.886Z,24.11
2023-02-02T11:16:38.875Z,9.65
2023-02-02T11:21:48.799Z,11.48
2023-02-02T11:26:55.818Z,12.03
2023-02-02T11:32:00.234Z,12.39
2023-02-02T11:37:14.688Z,13.34
2023-02-02T11:42:20.962Z,23.47
2023-02-02T11:47:28.471Z,24.52
2023-02-02T11:52:34.197Z,25.77
2023-02-02T11:57:38.426Z,24.10
2023-02-02T12:02:47.279Z,29.18
2023-02-02T12:07:52.443Z,24.96
2023-02-02T12:13:06.756Z,25.02
2023-02-02T12:18:22.399Z,25.42
2023-02-02T12:23:37.222Z,20.89
2023-02-02T12:29:03.807Z,25.80
2023-02-02T12:34:13.714Z,27.37
2023-02-02T12:39:34.404Z,31.09
2023-02-02T12:44:50.895Z,29.02
2023-02-02T12:50:04.845Z,27.18
2023-02-02T12:55:26.152Z,29.73
2023-02-02T13:00:50.481Z,23.74
2023-02-02T13:06:03.251Z,20.70
2023-02-02T13:11:29.965Z,12.88
2023-02-02T13:16:41.202Z,13.37
2023-02-02T13:21:46.274Z,12.32
2023-02-02T13:26:52.949Z,12.78
2023-02-02T13:32:02.294Z,11.50
2023-02-02T13:37:12.716Z,14.41
2023-02-02T13:42:24.937Z,26.48
2023-02-02T13:47:36.281Z,31.89
2023-02-02T13:52:57.325Z,30.46
2023-02-02T13:58:15.545Z,29.83
2023-02-02T14:03:32.272Z,31.83
2023-02-02T14:08:38.739Z,26.84
2023-02-02T14:14:04.016Z,26.39
2023-02-02T14:19:15.189Z,28.57
2023-02-02T14:24:36.458Z,37.38
2023-02-02T14:30:00.051Z,34.77
2023-02-02T14:35:18.754Z,18.42
2023-02-02T14:40:33.522Z,15.00
2023-02-02T14:45:40.422Z,14.78
2023-02-02T14:50:49.658Z,23.49
2023-02-02T14:55:59.879Z,35.51
2023-02-02T15:01:13.525Z,32.80
2023-02-02T15:06:27.791Z,38.06
2023-02-02T15:11:52.616Z,38.58
2023-02-02T15:17:02.918Z,34.47
2023-02-02T15:22:27.485Z,33.94
2023-02-02T15:27:38.646Z,38.24
2023-02-02T15:32:47.468Z,32.51
2023-02-02T15:37:56.179Z,34.03
2023-02-02T15:43:06.334Z,29.48
2023-02-02T15:48:18.757Z,24.07
2023-02-02T15:53:24.368Z,47.16
2023-02-02T15:58:33.472Z,26.56
2023-02-02T16:03:46.113Z,26.02
2023-02-02T16:08:50.683Z,31.14
2023-02-02T16:14:02.422Z,32.18
2023-02-02T16:19:14.940Z,30.96
2023-02-02T16:24:21.480Z,27.79
2023-02-02T16:29:30.535Z,29.18
2023-02-02T16:34:47.368Z,38.60
2023-02-02T16:39:53.474Z,39.15
2023-02-02T16:44:59.533Z,32.12
2023-02-02T16:50:20.632Z,56.26
2023-02-02T16:55:25.692Z,27.56
2023-02-02T17:00:33.501Z,15.51
2023-02-02T17:05:46.977Z,13.40
2023-02-02T17:11:02.504Z,12.92
2023-02-02T17:16:07.440Z,15.80
2023-02-02T17:21:15.002Z,24.21
2023-02-02T17:26:18.819Z,19.18
2023-02-02T17:31:23.994Z,24.24
2023-02-02T17:36:27.456Z,25.03
2023-02-02T17:41:33.180Z,23.63
2023-02-02T17:46:40.587Z,24.86
2023-02-02T17:51:46.557Z,22.46
2023-02-02T17:56:50.260Z,22.34
2023-02-02T18:01:55.436Z,26.63
2023-02-02T18:07:03.807Z,31.57
2023-02-02T18:12:07.442Z,22.16
2023-02-02T18:17:12.383Z,24.35
2023-02-02T18:22:15.855Z,25.36
2023-02-02T18:27:20.433Z,25.84
2023-02-02T18:32:25.341Z,31.03
2023-02-02T18:37:32.932Z,25.71
2023-02-02T18:42:38.901Z,30.13
2023-02-02T18:47:46.060Z,20.85
2023-02-02T18:52:51.833Z,22.91
2023-02-02T18:57:57.383Z,23.83
2023-02-02T19:03:02.187Z,23.42
2023-02-02T19:08:05.954Z,25.48
2023-02-02T19:13:15.810Z,21.66
2023-02-02T19:18:22.150Z,18.41
2023-02-02T19:23:32.195Z,16.60
2023-02-02T19:28:40.518Z,15.99
2023-02-02T19:33:47.077Z,23.85
2023-02-02T19:38:51.839Z,20.24
2023-02-02T19:43:58.482Z,22.74
2023-02-02T19:49:13.390Z,20.61
2023-02-02T19:54:25.820Z,20.92
2023-02-02T19:59:33.489Z,22.11
2023-02-02T20:04:40.697Z,20.47
2023-02-02T20:09:46.414Z,25.19
2023-02-02T20:14:49.880Z,26.16
2023-02-02T20:19:56.875Z,24.27
2023-02-02T20:25:05.012Z,21.40
2023-02-02T20:30:19.570Z,23.03
2023-02-02T20:35:34.563Z,21.70
2023-02-02T20:40:37.983Z,23.36
2023-02-02T20:45:43.697Z,18.69
2023-02-02T20:50:53.089Z,18.92
2023-02-02T20:56:00.280Z,20.66
2023-02-02T21:01:05.522Z,19.78
2023-02-02T21:06:10.444Z,18.24
2023-02-02T21:11:13.825Z,17.80
2023-02-02T21:16:17.879Z,21.32
2023-02-02T21:21:22.870Z,21.04
2023-02-02T21:26:31.366Z,23.77
2023-02-02T21:31:37.497Z,25.80
2023-02-02T21:36:44.568Z,21.03
2023-02-02T21:41:48.836Z,21.35
2023-02-02T21:46:53.072Z,21.70
2023-02-02T21:52:00.303Z,20.82
2023-02-02T21:57:06.253Z,20.26
2023-02-02T22:02:35.923Z,19.57
2023-02-02T22:07:42.390Z,20.90
2023-02-02T22:12:45.931Z,21.75
2023-02-02T22:17:51.445Z,21.18
2023-02-02T22:22:56.259Z,20.05
2023-02-02T22:28:02.941Z,20.97
2023-02-02T22:33:06.761Z,24.76
2023-02-02T22:38:16.864Z,16.64
2023-02-02T22:43:21.918Z,18.14
2023-02-02T22:48:25.498Z,20.33
2023-02-02T22:53:30.246Z,19.73
2023-02-02T22:58:33.706Z,20.45
2023-02-02T23:03:37.205Z,22.10
2023-02-02T23:08:42.002Z,21.59
2023-02-02T23:13:45.428Z,20.74
2023-02-02T23:18:51.138Z,21.96
2023-02-02T23:23:56.287Z,22.52
2023-02-02T23:29:00.864Z,22.12
2023-02-02T23:34:04.339Z,19.09
2023-02-02T23:39:09.120Z,19.69
2023-02-02T23:44:12.661Z,19.53
2023-02-02T23:49:18.880Z,20.33
2023-02-02T23:54:23.826Z,20.93
2023-02-02T23:59:27.241Z,19.26
